Time;durP1;ratioP1;P1;durP2;ratioP2;P2;SDS_P1;SDS_P2;PMS_P1;PMS_P2;Temp;Humidity;BMP_temperature;BMP_pressure;BME280_temperature;BME280_humidity;BME280_pressure;Samples;Min_cycle;Max_cycle;Signal;HPM_P1;HPM_P2
2021/01/22 00:04:14;;;;;;;13.80;7.80;;;;;;;3.39;73.84;98151.17;492633;1128;114100;-64
2021/01/22 00:14:18;;;;;;;13.97;9.27;;;;;;;3.26;74.23;98156.21;493118;1128;114028;-65
2021/01/22 00:24:23;;;;;;;15.67;10.10;;;;;;;3.19;74.72;98152.31;492815;1129;114040;-64
2021/01/22 00:34:27;;;;;;;17.50;10.90;;;;;;;3.08;74.95;98127.82;492283;1129;114212;-65
2021/01/22 00:44:31;;;;;;;26.10;13.00;;;;;;;2.96;74.89;98123.33;492446;1129;114309;-65
2021/01/22 00:54:35;;;;;;;23.33;11.87;;;;;;;2.87;75.12;98114.29;492846;1128;114230;-65
2021/01/22 01:04:39;;;;;;;21.27;13.60;;;;;;;2.94;75.74;98100.07;492849;1129;114207;-64
2021/01/22 01:14:43;;;;;;;20.45;12.30;;;;;;;3.11;76.10;98100.85;493189;1128;114218;-65
2021/01/22 01:24:47;;;;;;;27.87;14.87;;;;;;;3.26;75.24;98075.79;493202;1129;115000;-65
2021/01/22 01:34:51;;;;;;;23.40;14.43;;;;;;;3.41;75.09;98060.27;493197;1128;114105;-63
2021/01/22 01:44:55;;;;;;;22.37;13.90;;;;;;;3.54;75.65;98047.38;493104;1128;114822;-64
2021/01/22 01:54:59;;;;;;;29.45;16.05;;;;;;;3.58;74.99;98028.94;493346;1128;114133;-65
2021/01/22 02:05:07;;;;;;;29.70;16.80;;;;;;;3.68;75.14;98026.61;493030;1127;114083;-65
2021/01/22 02:15:15;;;;;;;30.97;16.83;;;;;;;3.67;74.80;98011.14;493129;1128;114664;-65
2021/01/22 02:25:22;;;;;;;30.23;15.60;;;;;;;3.61;75.12;97989.80;493222;1128;114230;-65
2021/01/22 02:35:28;;;;;;;28.50;17.07;;;;;;;3.40;74.92;97976.39;492928;1128;114003;-65
2021/01/22 02:45:32;;;;;;;28.30;17.93;;;;;;;3.15;75.50;97982.20;493153;1129;114153;-65
2021/01/22 02:55:37;;;;;;;41.53;23.87;;;;;;;2.82;75.23;97946.97;493296;1129;114011;-65
2021/01/22 03:05:41;;;;;;;32.20;20.13;;;;;;;2.37;75.54;97953.80;492537;1129;114062;-64
2021/01/22 03:15:46;;;;;;;41.73;25.60;;;;;;;1.98;75.91;97939.59;492673;1129;114123;-65
2021/01/22 03:25:49;;;;;;;37.77;23.63;;;;;;;1.62;76.56;97930.34;493147;1128;114184;-65
2021/01/22 03:35:53;;;;;;;41.73;24.37;;;;;;;1.45;76.65;97915.72;493334;1129;114120;-65
2021/01/22 03:45:57;;;;;;;34.07;23.10;;;;;;;1.34;76.42;97917.12;493180;1128;114424;-65
2021/01/22 03:56:01;;;;;;;34.00;22.37;;;;;;;1.39;77.19;97888.44;493276;1128;114374;-65
2021/01/22 04:06:06;;;;;;;38.77;23.87;;;;;;;1.40;76.79;97874.58;493559;1128;114133;-65
2021/01/22 04:16:10;;;;;;;38.50;22.73;;;;;;;1.46;76.65;97856.12;493103;1129;114145;-65
2021/01/22 04:26:15;;;;;;;31.53;21.50;;;;;;;1.46;77.26;97850.95;492936;1128;114124;-65
2021/01/22 04:36:19;;;;;;;30.67;19.13;;;;;;;1.47;76.48;97847.45;493040;1129;114141;-65
2021/01/22 04:46:23;;;;;;;32.50;21.00;;;;;;;1.33;76.29;97855.98;492972;1129;114123;-63
2021/01/22 04:56:29;;;;;;;38.83;21.00;;;;;;;1.19;76.81;97846.38;493190;1128;117701;-64
2021/01/22 05:06:33;;;;;;;29.20;18.77;;;;;;;1.10;76.92;97841.69;493154;1128;114788;-66
2021/01/22 05:16:37;;;;;;;27.93;18.77;;;;;;;1.10;77.72;97845.13;492532;1130;114122;-66
2021/01/22 05:26:43;;;;;;;34.87;18.57;;;;;;;1.14;77.18;97832.02;492644;1128;114125;-65
2021/01/22 05:36:49;;;;;;;30.47;19.47;;;;;;;1.11;77.48;97844.20;492691;1129;114106;-65
2021/01/22 05:47:07;;;;;;;29.10;18.07;;;;;;;1.09;77.00;97846.01;493522;1129;114465;-66
2021/01/22 05:57:12;;;;;;;26.52;17.90;;;;;;;1.10;77.75;97847.70;492880;1129;114449;-64
2021/01/22 06:07:17;;;;;;;26.67;17.27;;;;;;;1.18;77.85;97834.36;493225;1129;114150;-65
2021/01/22 06:17:22;;;;;;;27.30;16.27;;;;;;;1.31;78.12;97833.70;493207;1128;114225;-65
2021/01/22 06:27:27;;;;;;;28.67;17.83;;;;;;;1.45;77.89;97826.01;493619;1129;114140;-65
2021/01/22 06:37:33;;;;;;;27.57;18.17;;;;;;;1.52;77.37;97800.63;492960;1127;114911;-65
2021/01/22 06:47:36;;;;;;;29.90;18.37;;;;;;;1.57;78.00;97800.38;493294;1129;114577;-64
2021/01/22 06:57:41;;;;;;;22.70;14.97;;;;;;;1.60;77.98;97787.27;493030;1128;114126;-64
2021/01/22 07:07:48;;;;;;;24.10;16.43;;;;;;;1.69;78.02;97771.22;492888;1129;114128;-65
2021/01/22 07:17:52;;;;;;;;;;;;;;;1.92;77.48;97748.36;492666;1129;114533;-74
2021/01/22 07:27:56;;;;;;;21.20;15.45;;;;;;;2.30;78.01;97747.03;494205;1128;100340;-73
2021/01/22 07:38:00;;;;;;;25.63;14.53;;;;;;;2.46;77.65;97744.35;492345;1129;116103;-73
2021/01/22 07:48:06;;;;;;;19.93;13.53;;;;;;;2.78;77.38;97728.59;492330;1129;116051;-75
2021/01/22 07:58:10;;;;;;;25.20;14.50;;;;;;;3.23;76.94;97720.59;492979;1128;114216;-74
2021/01/22 08:08:19;;;;;;;19.77;13.33;;;;;;;3.49;76.69;97710.29;492988;1128;115983;-76
2021/01/22 08:18:24;;;;;;;20.82;12.70;;;;;;;3.71;76.29;97706.29;485136;1129;10003907;-75
2021/01/22 08:28:28;;;;;;;22.23;14.93;;;;;;;3.84;75.69;97707.13;492475;1129;115244;-74
2021/01/22 08:38:33;;;;;;;22.60;14.77;;;;;;;4.01;76.33;97715.58;492113;1129;114113;-74
2021/01/22 08:48:38;;;;;;;17.13;12.77;;;;;;;4.15;75.17;97701.63;492271;1129;114082;-73
2021/01/22 08:59:02;;;;;;;21.40;12.80;;;;;;;4.42;75.77;97703.30;492467;1129;115372;-75
2021/01/22 09:09:09;;;;;;;18.23;12.83;;;;;;;5.74;75.24;97707.77;492553;1130;114227;-72
2021/01/22 09:19:13;;;;;;;20.87;13.93;;;;;;;6.66;72.97;97690.47;492675;1129;115158;-71
2021/01/22 09:29:17;;;;;;;20.23;11.67;;;;;;;6.66;72.15;97673.98;502645;1128;114326;-74
2021/01/22 09:39:21;;;;;;;22.20;14.30;;;;;;;6.91;72.11;97662.44;493164;1128;114114;-71
2021/01/22 09:49:25;;;;;;;17.70;12.83;;;;;;;7.03;72.16;97658.00;493416;1129;114134;-69
2021/01/22 09:59:29;;;;;;;20.23;14.27;;;;;;;7.46;71.24;97647.63;492950;1129;115028;-72
2021/01/22 10:09:33;;;;;;;20.77;13.40;;;;;;;7.25;71.10;97666.70;493280;1129;115208;-70
2021/01/22 10:19:37;;;;;;;22.83;12.60;;;;;;;7.28;71.85;97664.67;493624;1129;114982;-71
2021/01/22 10:29:41;;;;;;;17.07;10.77;;;;;;;7.69;71.29;97637.90;493464;1128;115009;-63
2021/01/22 10:39:48;;;;;;;16.07;9.87;;;;;;;8.19;71.48;97631.13;493201;1129;114665;-59
2021/01/22 10:49:52;;;;;;;10.27;7.97;;;;;;;8.49;70.42;97611.14;493244;1129;114238;-66
2021/01/22 10:59:56;;;;;;;15.13;8.97;;;;;;;8.59;70.30;97630.30;493074;1128;114256;-63
2021/01/22 11:10:00;;;;;;;12.80;8.03;;;;;;;8.63;69.85;97629.09;493397;1129;114964;-65
2021/01/22 11:20:07;;;;;;;10.47;5.90;;;;;;;8.68;70.32;97611.19;493442;1128;114401;-63
2021/01/22 11:30:13;;;;;;;16.53;7.13;;;;;;;8.59;69.57;97587.64;493146;1128;114238;-67
2021/01/22 11:40:17;;;;;;;9.50;5.07;;;;;;;8.41;70.19;97593.47;492902;1128;115103;-67
2021/01/22 11:50:21;;;;;;;9.60;5.27;;;;;;;8.33;70.37;97603.80;493073;1128;114049;-66
2021/01/22 12:00:27;;;;;;;10.10;5.73;;;;;;;8.26;70.36;97579.97;492918;1129;113950;-66
2021/01/22 12:10:31;;;;;;;10.03;6.00;;;;;;;8.35;69.96;97565.26;492670;1128;114260;-65
2021/01/22 12:20:35;;;;;;;8.30;4.93;;;;;;;8.38;70.42;97560.59;492941;1128;114948;-65
2021/01/22 12:30:39;;;;;;;5.97;4.27;;;;;;;8.47;69.92;97563.34;493432;1129;114023;-66
2021/01/22 12:40:43;;;;;;;8.47;5.33;;;;;;;8.39;70.42;97559.63;493006;1128;114037;-67
2021/01/22 12:50:47;;;;;;;9.27;4.53;;;;;;;8.45;69.98;97565.27;492878;1128;115161;-66
2021/01/22 13:00:51;;;;;;;7.50;4.43;;;;;;;8.49;70.32;97564.86;493198;1128;114007;-66
2021/01/22 13:10:55;;;;;;;11.23;5.17;;;;;;;8.41;69.78;97567.32;492767;1127;114043;-65
2021/01/22 13:20:59;;;;;;;15.80;6.90;;;;;;;8.27;70.16;97574.59;492848;1128;114168;-65
2021/01/22 13:31:08;;;;;;;9.25;5.00;;;;;;;8.07;70.59;97572.86;493264;1128;114774;-67
2021/01/22 13:41:12;;;;;;;11.13;7.00;;;;;;;8.06;70.12;97581.67;493625;1128;113973;-70
2021/01/22 13:51:16;;;;;;;9.90;6.23;;;;;;;7.98;70.67;97583.17;492461;1129;114216;-65
2021/01/22 14:01:20;;;;;;;12.80;6.40;;;;;;;7.83;70.91;97571.39;492671;1128;114351;-63
2021/01/22 14:11:24;;;;;;;9.80;5.60;;;;;;;7.71;70.79;97594.19;492807;1129;114459;-71
2021/01/22 14:21:28;;;;;;;14.63;6.93;;;;;;;7.68;71.59;97602.28;493145;1127;114558;-70
2021/01/22 14:31:32;;;;;;;11.90;6.00;;;;;;;7.63;71.59;97602.67;493165;1128;114302;-58
2021/01/22 14:41:36;;;;;;;13.53;7.10;;;;;;;7.53;72.11;97612.23;492992;1129;114564;-57
2021/01/22 14:51:40;;;;;;;10.73;5.83;;;;;;;7.51;72.25;97611.53;492553;1128;114014;-58
2021/01/22 15:01:45;;;;;;;17.97;9.73;;;;;;;7.50;72.12;97605.47;492802;1131;115297;-56
2021/01/22 15:11:49;;;;;;;14.95;8.00;;;;;;;7.44;72.44;97621.63;493240;1128;114227;-57
2021/01/22 15:21:53;;;;;;;12.13;6.67;;;;;;;7.25;72.55;97636.22;493351;1129;114633;-57
2021/01/22 15:31:57;;;;;;;17.03;8.57;;;;;;;7.17;73.13;97637.80;492875;1128;114857;-57
2021/01/22 15:42:02;;;;;;;14.07;8.60;;;;;;;7.19;73.28;97641.92;492433;1129;114228;-59
2021/01/22 15:52:06;;;;;;;14.77;8.43;;;;;;;7.14;73.50;97644.09;492890;1127;114515;-58
2021/01/22 16:02:11;;;;;;;12.30;7.40;;;;;;;7.04;73.69;97633.59;493149;1128;114248;-56
2021/01/22 16:12:16;;;;;;;14.37;7.53;;;;;;;6.99;73.71;97640.94;492669;1128;114422;-56
2021/01/22 16:22:19;;;;;;;18.43;10.20;;;;;;;6.85;73.96;97639.43;492735;1128;114216;-56
2021/01/22 16:32:23;;;;;;;16.60;10.23;;;;;;;6.75;74.22;97641.11;493209;1129;114396;-57
2021/01/22 16:42:29;;;;;;;21.00;11.60;;;;;;;6.72;74.40;97648.23;493234;1129;114458;-58
2021/01/22 16:52:35;;;;;;;23.47;12.47;;;;;;;6.65;74.35;97644.48;493599;1128;114328;-59
2021/01/22 17:02:39;;;;;;;20.85;11.80;;;;;;;6.51;74.36;97674.23;493046;1128;115178;-57
2021/01/22 17:12:43;;;;;;;20.77;11.10;;;;;;;6.33;74.67;97666.07;492811;1128;114411;-59
2021/01/22 17:22:48;;;;;;;24.90;14.43;;;;;;;6.12;75.16;97671.98;492908;1128;115313;-59
2021/01/22 17:32:55;;;;;;;25.12;13.70;;;;;;;5.93;75.50;97669.08;493104;1128;114676;-56
2021/01/22 17:42:59;;;;;;;32.93;18.50;;;;;;;5.82;75.64;97681.14;493042;1128;115197;-66
2021/01/22 17:53:03;;;;;;;31.07;15.47;;;;;;;5.59;76.14;97688.89;492666;1128;114358;-68
2021/01/22 18:03:07;;;;;;;24.90;13.77;;;;;;;5.38;76.64;97701.73;492516;1129;114659;-69
2021/01/22 18:13:12;;;;;;;26.10;13.57;;;;;;;5.26;77.16;97706.07;492802;1128;114259;-72
2021/01/22 18:23:16;;;;;;;22.03;12.27;;;;;;;5.16;77.36;97694.66;493685;1128;116052;-67
2021/01/22 18:33:21;;;;;;;24.33;13.50;;;;;;;4.98;77.34;97707.22;493218;1128;114123;-71
2021/01/22 18:43:26;;;;;;;23.57;12.50;;;;;;;4.85;78.42;97710.70;493313;1128;114132;-68
2021/01/22 18:53:30;;;;;;;20.30;11.45;;;;;;;4.82;78.82;97715.28;485384;1128;10001926;-74
2021/01/22 19:03:34;;;;;;;20.97;13.30;;;;;;;4.77;78.82;97729.42;484174;1129;10001986;-66
2021/01/22 19:13:39;;;;;;;20.17;13.37;;;;;;;4.75;79.43;97730.48;492817;1128;114755;-66
2021/01/22 19:23:43;;;;;;;29.13;15.70;;;;;;;4.71;79.30;97732.47;492045;1128;114599;-66
2021/01/22 19:33:47;;;;;;;39.33;20.33;;;;;;;4.69;79.91;97723.95;493441;1128;114162;-66
2021/01/22 19:43:51;;;;;;;28.03;17.17;;;;;;;4.63;80.14;97734.76;492985;1129;114150;-66
2021/01/22 19:53:55;;;;;;;38.23;20.43;;;;;;;4.54;79.71;97744.03;493185;1129;114393;-67
2021/01/22 20:04:00;;;;;;;40.35;21.50;;;;;;;4.49;79.63;97748.70;492925;1128;114612;-66
2021/01/22 20:14:04;;;;;;;36.10;20.30;;;;;;;4.39;80.53;97753.70;492778;1128;114254;-65
2021/01/22 20:24:09;;;;;;;29.65;18.80;;;;;;;4.31;80.77;97754.23;493285;1129;114596;-63
2021/01/22 20:34:13;;;;;;;29.57;17.30;;;;;;;4.20;80.96;97743.73;494297;1128;114081;-68
2021/01/22 20:44:17;;;;;;;27.27;17.93;;;;;;;4.03;81.30;97750.88;493634;1128;114212;-68
2021/01/22 20:54:22;;;;;;;32.75;21.00;;;;;;;3.86;81.59;97757.19;492395;1128;114489;-69
2021/01/22 21:04:26;;;;;;;38.47;23.37;;;;;;;3.66;81.56;97758.50;492699;1128;114344;-67
2021/01/22 21:14:29;;;;;;;30.43;20.63;;;;;;;3.54;81.94;97748.92;492354;1128;114144;-66
2021/01/22 21:24:33;;;;;;;33.20;20.53;;;;;;;3.41;81.31;97761.88;492469;1128;117874;-70
2021/01/22 21:34:37;;;;;;;40.60;22.47;;;;;;;3.25;82.09;97777.58;492246;1129;114587;-68
2021/01/22 21:44:41;;;;;;;35.77;23.33;;;;;;;3.10;82.53;97769.81;493757;1131;114571;-69
2021/01/22 21:54:45;;;;;;;41.80;24.60;;;;;;;3.02;82.69;97772.07;492519;1128;114585;-70
2021/01/22 22:04:49;;;;;;;34.87;23.87;;;;;;;2.91;82.70;97765.79;492555;1128;114707;-73
2021/01/22 22:14:53;;;;;;;32.23;19.63;;;;;;;2.92;83.47;97770.05;493607;1128;114470;-68
2021/01/22 22:24:57;;;;;;;37.00;21.13;;;;;;;3.00;83.75;97772.16;493679;1128;114717;-74
2021/01/22 22:35:02;;;;;;;26.50;16.37;;;;;;;3.08;83.85;97771.67;499094;1128;115101;-69
2021/01/22 22:45:08;;;;;;;31.03;17.50;;;;;;;3.11;84.74;97789.63;496637;1128;114083;-68
2021/01/22 22:55:13;;;;;;;24.10;15.83;;;;;;;3.13;84.12;97797.32;494810;1129;114081;-73
2021/01/22 23:05:18;;;;;;;28.87;17.43;;;;;;;3.12;84.43;97787.88;493367;1129;114021;-65
2021/01/22 23:15:22;;;;;;;25.83;18.67;;;;;;;3.03;84.56;97789.30;493953;1128;114304;-73
2021/01/22 23:25:26;;;;;;;44.55;27.30;;;;;;;2.94;84.42;97794.11;493369;1129;114128;-71
2021/01/22 23:35:30;;;;;;;29.50;19.07;;;;;;;2.92;85.03;97782.16;492471;1128;114167;-67
2021/01/22 23:45:34;;;;;;;32.63;20.07;;;;;;;2.92;84.73;97772.64;493889;1128;114100;-69
2021/01/22 23:55:38;;;;;;;32.43;21.57;;;;;;;2.94;84.90;97770.78;492916;1129;114021;-69
